sensor_id;sensor_type;location;lat;lon;timestamp;pressure;altitude;pressure_sealevel;temperature;humidity
56518;BME280;42419;48.760;2.322;2023-03-31T00:01:34;99798.22;;;23.66;42.91
56518;BME280;42419;48.760;2.322;2023-03-31T00:04:00;99796.41;;;23.67;43.20
56518;BME280;42419;48.760;2.322;2023-03-31T00:06:34;99812.44;;;23.68;43.29
56518;BME280;42419;48.760;2.322;2023-03-31T00:09:04;99824.88;;;23.69;43.10
56518;BME280;42419;48.760;2.322;2023-03-31T00:11:30;99804.22;;;23.57;42.93
56518;BME280;42419;48.760;2.322;2023-03-31T00:13:55;99828.66;;;23.67;43.19
56518;BME280;42419;48.760;2.322;2023-03-31T00:16:20;99815.44;;;23.64;43.00
56518;BME280;42419;48.760;2.322;2023-03-31T00:18:46;99797.56;;;23.63;43.02
56518;BME280;42419;48.760;2.322;2023-03-31T00:21:21;99657.84;;;23.25;43.26
56518;BME280;42419;48.760;2.322;2023-03-31T00:23:51;99645.81;;;23.31;42.61
56518;BME280;42419;48.760;2.322;2023-03-31T00:26:17;99695.03;;;23.69;43.01
56518;BME280;42419;48.760;2.322;2023-03-31T00:28:42;99679.13;;;23.53;42.91
56518;BME280;42419;48.760;2.322;2023-03-31T00:31:07;99677.28;;;23.66;42.71
56518;BME280;42419;48.760;2.322;2023-03-31T00:33:33;99665.47;;;23.69;42.43
56518;BME280;42419;48.760;2.322;2023-03-31T00:35:58;99662.56;;;23.72;42.03
56518;BME280;42419;48.760;2.322;2023-03-31T00:38:27;99681.38;;;23.72;42.98
56518;BME280;42419;48.760;2.322;2023-03-31T00:40:53;99676.72;;;23.74;42.63
56518;BME280;42419;48.760;2.322;2023-03-31T00:43:37;99676.63;;;23.76;42.49
56518;BME280;42419;48.760;2.322;2023-03-31T00:48:32;99617.19;;;23.67;42.34
56518;BME280;42419;48.760;2.322;2023-03-31T00:51:03;99626.50;;;23.74;42.04
56518;BME280;42419;48.760;2.322;2023-03-31T00:53:30;99627.72;;;23.70;41.70
56518;BME280;42419;48.760;2.322;2023-03-31T00:56:01;99629.09;;;23.76;42.25
56518;BME280;42419;48.760;2.322;2023-03-31T00:58:31;99633.50;;;23.77;42.29
56518;BME280;42419;48.760;2.322;2023-03-31T01:01:01;99623.63;;;23.78;42.10
56518;BME280;42419;48.760;2.322;2023-03-31T01:03:29;99604.69;;;23.79;41.88
56518;BME280;42419;48.760;2.322;2023-03-31T01:06:00;99605.66;;;23.78;41.72
56518;BME280;42419;48.760;2.322;2023-03-31T01:08:27;99617.16;;;23.80;41.79
56518;BME280;42419;48.760;2.322;2023-03-31T01:10:56;99604.56;;;23.81;42.18
56518;BME280;42419;48.760;2.322;2023-03-31T01:13:23;99609.00;;;23.82;41.77
56518;BME280;42419;48.760;2.322;2023-03-31T01:15:50;99611.69;;;23.82;41.67
56518;BME280;42419;48.760;2.322;2023-03-31T01:18:16;99560.31;;;23.61;41.17
56518;BME280;42419;48.760;2.322;2023-03-31T01:45:58;99539.19;;;23.80;41.03
56518;BME280;42419;48.760;2.322;2023-03-31T01:51:22;99535.97;;;23.88;40.65
56518;BME280;42419;48.760;2.322;2023-03-31T01:56:34;99524.13;;;23.90;40.60
56518;BME280;42419;48.760;2.322;2023-03-31T02:01:45;99500.06;;;23.89;40.42
56518;BME280;42419;48.760;2.322;2023-03-31T02:04:17;99505.44;;;23.89;40.24
56518;BME280;42419;48.760;2.322;2023-03-31T02:06:46;99489.44;;;23.87;40.58
56518;BME280;42419;48.760;2.322;2023-03-31T02:09:21;99502.75;;;23.89;40.65
56518;BME280;42419;48.760;2.322;2023-03-31T02:11:48;99484.06;;;23.87;40.41
56518;BME280;42419;48.760;2.322;2023-03-31T02:14:17;99489.28;;;23.89;40.14
56518;BME280;42419;48.760;2.322;2023-03-31T02:16:49;99484.78;;;23.89;40.50
56518;BME280;42419;48.760;2.322;2023-03-31T02:19:18;99468.53;;;23.91;40.38
56518;BME280;42419;48.760;2.322;2023-03-31T02:21:47;99476.63;;;23.91;40.54
56518;BME280;42419;48.760;2.322;2023-03-31T02:24:17;99470.38;;;23.90;39.86
56518;BME280;42419;48.760;2.322;2023-03-31T02:26:52;99455.88;;;23.80;40.26
56518;BME280;42419;48.760;2.322;2023-03-31T02:29:18;99471.22;;;23.91;40.12
56518;BME280;42419;48.760;2.322;2023-03-31T02:34:25;99453.28;;;23.91;40.26
56518;BME280;42419;48.760;2.322;2023-03-31T02:36:50;99430.28;;;23.87;40.29
56518;BME280;42419;48.760;2.322;2023-03-31T02:39:24;99429.44;;;23.87;39.49
56518;BME280;42419;48.760;2.322;2023-03-31T02:41:51;99422.84;;;23.91;39.58
56518;BME280;42419;48.760;2.322;2023-03-31T02:44:16;99421.88;;;23.92;39.60
56518;BME280;42419;48.760;2.322;2023-03-31T02:46:43;99418.94;;;23.95;39.65
56518;BME280;42419;48.760;2.322;2023-03-31T02:49:10;99378.78;;;23.81;39.63
56518;BME280;42419;48.760;2.322;2023-03-31T02:55:16;99360.59;;;23.84;39.70
56518;BME280;42419;48.760;2.322;2023-03-31T03:06:03;99381.56;;;23.92;39.61
56518;BME280;42419;48.760;2.322;2023-03-31T03:13:39;99373.50;;;23.92;39.20
56518;BME280;42419;48.760;2.322;2023-03-31T03:16:14;99376.91;;;23.94;39.21
56518;BME280;42419;48.760;2.322;2023-03-31T03:18:43;99367.97;;;23.93;39.20
56518;BME280;42419;48.760;2.322;2023-03-31T03:21:09;99341.41;;;23.78;39.42
56518;BME280;42419;48.760;2.322;2023-03-31T03:23:34;99372.38;;;23.94;39.08
56518;BME280;42419;48.760;2.322;2023-03-31T03:25:59;99364.22;;;23.96;38.92
56518;BME280;42419;48.760;2.322;2023-03-31T03:28:25;99373.97;;;23.97;39.07
56518;BME280;42419;48.760;2.322;2023-03-31T03:30:51;99340.59;;;23.88;38.86
56518;BME280;42419;48.760;2.322;2023-03-31T03:33:17;99361.38;;;23.97;39.10
56518;BME280;42419;48.760;2.322;2023-03-31T03:35:42;99357.72;;;23.98;38.94
56518;BME280;42419;48.760;2.322;2023-03-31T03:38:08;99351.47;;;23.98;38.73
56518;BME280;42419;48.760;2.322;2023-03-31T03:40:33;99345.25;;;23.97;38.88
56518;BME280;42419;48.760;2.322;2023-03-31T03:42:58;99336.31;;;23.97;38.56
56518;BME280;42419;48.760;2.322;2023-03-31T03:45:24;99315.16;;;23.92;38.56
56518;BME280;42419;48.760;2.322;2023-03-31T03:47:49;99343.41;;;23.98;38.51
56518;BME280;42419;48.760;2.322;2023-03-31T03:50:15;99326.31;;;23.99;38.19
56518;BME280;42419;48.760;2.322;2023-03-31T03:52:40;99323.63;;;23.99;38.39
56518;BME280;42419;48.760;2.322;2023-03-31T03:55:06;99315.56;;;23.99;38.50
56518;BME280;42419;48.760;2.322;2023-03-31T03:57:31;99321.78;;;23.99;38.25
56518;BME280;42419;48.760;2.322;2023-03-31T03:59:56;99241.16;;;23.53;37.94
56518;BME280;42419;48.760;2.322;2023-03-31T04:02:22;99311.75;;;24.01;37.96
56518;BME280;42419;48.760;2.322;2023-03-31T04:04:47;99307.38;;;24.00;38.59
56518;BME280;42419;48.760;2.322;2023-03-31T04:07:12;99295.78;;;24.00;38.02
56518;BME280;42419;48.760;2.322;2023-03-31T04:09:37;99299.31;;;24.00;37.73
56518;BME280;42419;48.760;2.322;2023-03-31T04:12:03;99285.50;;;23.94;37.99
56518;BME280;42419;48.760;2.322;2023-03-31T04:14:28;99295.78;;;24.00;38.28
56518;BME280;42419;48.760;2.322;2023-03-31T04:16:54;99280.59;;;23.99;38.08
56518;BME280;42419;48.760;2.322;2023-03-31T04:19:21;99272.66;;;23.97;37.97
56518;BME280;42419;48.760;2.322;2023-03-31T04:21:50;99286.94;;;23.98;38.32
56518;BME280;42419;48.760;2.322;2023-03-31T04:24:25;99289.63;;;23.98;38.40
56518;BME280;42419;48.760;2.322;2023-03-31T04:26:55;99286.09;;;23.97;37.83
56518;BME280;42419;48.760;2.322;2023-03-31T04:29:21;99289.53;;;23.99;37.80
56518;BME280;42419;48.760;2.322;2023-03-31T04:31:47;99286.09;;;23.97;37.74
56518;BME280;42419;48.760;2.322;2023-03-31T04:34:14;99260.50;;;23.81;38.02
56518;BME280;42419;48.760;2.322;2023-03-31T04:36:45;99272.50;;;23.88;37.69
56518;BME280;42419;48.760;2.322;2023-03-31T04:39:18;99291.25;;;24.00;37.65
56518;BME280;42419;48.760;2.322;2023-03-31T04:41:55;99266.50;;;23.84;37.82
56518;BME280;42419;48.760;2.322;2023-03-31T04:44:20;99294.91;;;23.99;38.25
56518;BME280;42419;48.760;2.322;2023-03-31T04:46:46;99276.06;;;23.88;37.93
56518;BME280;42419;48.760;2.322;2023-03-31T04:49:12;99287.22;;;23.95;37.11
56518;BME280;42419;48.760;2.322;2023-03-31T04:51:37;99292.94;;;24.01;37.50
56518;BME280;42419;48.760;2.322;2023-03-31T04:54:03;99282.53;;;23.97;37.70
56518;BME280;42419;48.760;2.322;2023-03-31T04:56:28;99286.59;;;24.02;38.11
56518;BME280;42419;48.760;2.322;2023-03-31T04:58:53;99288.41;;;24.02;38.19
56518;BME280;42419;48.760;2.322;2023-03-31T05:01:19;99230.22;;;23.67;37.83
56518;BME280;42419;48.760;2.322;2023-03-31T05:03:45;99291.97;;;24.02;37.89
56518;BME280;42419;48.760;2.322;2023-03-31T05:06:13;99280.34;;;24.02;37.88
56518;BME280;42419;48.760;2.322;2023-03-31T05:08:38;99283.78;;;24.04;37.86
56518;BME280;42419;48.760;2.322;2023-03-31T05:11:03;99294.53;;;24.04;38.33
56518;BME280;42419;48.760;2.322;2023-03-31T05:13:30;99291.72;;;24.05;38.56
56518;BME280;42419;48.760;2.322;2023-03-31T05:15:55;99286.13;;;24.08;38.25
56518;BME280;42419;48.760;2.322;2023-03-31T05:18:20;99278.16;;;24.07;38.65
56518;BME280;42419;48.760;2.322;2023-03-31T05:20:46;99275.47;;;24.07;38.34
56518;BME280;42419;48.760;2.322;2023-03-31T05:23:12;99288.81;;;24.08;38.25
56518;BME280;42419;48.760;2.322;2023-03-31T05:25:38;99267.66;;;24.04;38.29
56518;BME280;42419;48.760;2.322;2023-03-31T05:28:03;99269.13;;;24.08;39.42
56518;BME280;42419;48.760;2.322;2023-03-31T05:30:29;99269.22;;;24.06;39.63
56518;BME280;42419;48.760;2.322;2023-03-31T05:32:55;99255.56;;;23.98;39.82
56518;BME280;42419;48.760;2.322;2023-03-31T05:35:21;99251.38;;;24.05;39.89
56518;BME280;42419;48.760;2.322;2023-03-31T05:37:46;99258.47;;;24.06;40.11
56518;BME280;42419;48.760;2.322;2023-03-31T05:40:12;99254.94;;;24.06;39.85
56518;BME280;42419;48.760;2.322;2023-03-31T05:42:37;99265.69;;;24.06;39.37
56518;BME280;42419;48.760;2.322;2023-03-31T05:45:03;99252.25;;;24.06;39.58
56518;BME280;42419;48.760;2.322;2023-03-31T05:47:28;99263.84;;;24.06;39.17
56518;BME280;42419;48.760;2.322;2023-03-31T05:49:54;99244.69;;;24.00;39.66
56518;BME280;42419;48.760;2.322;2023-03-31T05:52:19;99255.94;;;24.05;39.26
56518;BME280;42419;48.760;2.322;2023-03-31T05:54:44;99255.94;;;24.05;39.08
56518;BME280;42419;48.760;2.322;2023-03-31T05:57:10;99255.78;;;24.06;38.90
56518;BME280;42419;48.760;2.322;2023-03-31T05:59:36;99248.59;;;24.07;38.94
56518;BME280;42419;48.760;2.322;2023-03-31T06:02:03;99252.72;;;24.11;38.74
56518;BME280;42419;48.760;2.322;2023-03-31T06:04:28;99258.13;;;24.11;38.83
56518;BME280;42419;48.760;2.322;2023-03-31T06:06:53;99257.41;;;24.09;38.51
56518;BME280;42419;48.760;2.322;2023-03-31T06:09:20;99261.41;;;24.14;38.85
56518;BME280;42419;48.760;2.322;2023-03-31T06:11:45;99258.72;;;24.14;38.40
56518;BME280;42419;48.760;2.322;2023-03-31T06:14:11;99266.69;;;24.16;38.39
56518;BME280;42419;48.760;2.322;2023-03-31T06:16:36;99248.72;;;24.16;37.96
56518;BME280;42419;48.760;2.322;2023-03-31T06:19:02;99263.72;;;24.19;38.75
56518;BME280;42419;48.760;2.322;2023-03-31T06:21:27;99265.44;;;24.20;38.18
56518;BME280;42419;48.760;2.322;2023-03-31T06:23:52;99252.97;;;24.19;38.40
56518;BME280;42419;48.760;2.322;2023-03-31T06:26:22;99263.63;;;24.21;38.33
56518;BME280;42419;48.760;2.322;2023-03-31T06:28:48;99274.38;;;24.21;38.05
56518;BME280;42419;48.760;2.322;2023-03-31T06:31:18;99261.91;;;24.20;37.75
56518;BME280;42419;48.760;2.322;2023-03-31T06:33:44;99186.38;;;23.78;38.24
56518;BME280;42419;48.760;2.322;2023-03-31T06:36:11;99258.97;;;24.23;37.54
56518;BME280;42419;48.760;2.322;2023-03-31T06:38:37;99265.06;;;24.25;37.49
56518;BME280;42419;48.760;2.322;2023-03-31T06:41:03;99273.25;;;24.23;38.00
56518;BME280;42419;48.760;2.322;2023-03-31T06:43:29;99274.25;;;24.22;37.85
56518;BME280;42419;48.760;2.322;2023-03-31T06:45:55;99268.88;;;24.22;37.66
56518;BME280;42419;48.760;2.322;2023-03-31T06:48:22;99266.19;;;24.11;37.53
56518;BME280;42419;48.760;2.322;2023-03-31T06:50:47;99282.44;;;24.21;37.56
56518;BME280;42419;48.760;2.322;2023-03-31T06:53:13;99286.09;;;24.20;37.73
56518;BME280;42419;48.760;2.322;2023-03-31T06:55:38;99285.25;;;24.19;37.18
56518;BME280;42419;48.760;2.322;2023-03-31T06:58:04;99282.56;;;24.19;37.60
56518;BME280;42419;48.760;2.322;2023-03-31T07:00:31;99282.44;;;24.21;37.74
56518;BME280;42419;48.760;2.322;2023-03-31T07:02:56;99209.56;;;23.79;37.52
56518;BME280;42419;48.760;2.322;2023-03-31T07:05:22;99274.13;;;24.24;37.44
56518;BME280;42419;48.760;2.322;2023-03-31T07:07:54;99286.72;;;24.23;37.21
56518;BME280;42419;48.760;2.322;2023-03-31T07:10:20;99263.50;;;24.22;36.99
56518;BME280;42419;48.760;2.322;2023-03-31T07:12:46;99269.75;;;24.23;36.88
56518;BME280;42419;48.760;2.322;2023-03-31T07:15:11;99274.25;;;24.22;37.05
56518;BME280;42419;48.760;2.322;2023-03-31T07:17:37;99269.75;;;24.23;37.23
56518;BME280;42419;48.760;2.322;2023-03-31T07:20:07;99268.88;;;24.22;36.97
56518;BME280;42419;48.760;2.322;2023-03-31T07:22:45;99278.78;;;24.22;37.06
56518;BME280;42419;48.760;2.322;2023-03-31T07:25:12;99273.50;;;24.20;36.46
56518;BME280;42419;48.760;2.322;2023-03-31T07:27:39;99285.03;;;24.22;37.00
56518;BME280;42419;48.760;2.322;2023-03-31T07:30:06;99290.75;;;24.17;36.82
56518;BME280;42419;48.760;2.322;2023-03-31T07:32:31;99299.69;;;24.18;36.49
56518;BME280;42419;48.760;2.322;2023-03-31T07:34:57;99283.56;;;24.18;36.44
56518;BME280;42419;48.760;2.322;2023-03-31T07:37:23;99272.66;;;24.08;36.88
56518;BME280;42419;48.760;2.322;2023-03-31T07:39:48;99289.03;;;24.16;36.86
56518;BME280;42419;48.760;2.322;2023-03-31T07:42:14;99278.53;;;24.13;36.35
56518;BME280;42419;48.760;2.322;2023-03-31T07:44:39;99266.91;;;24.02;36.83
56518;BME280;42419;48.760;2.322;2023-03-31T07:47:04;99302.38;;;24.18;36.38
56518;BME280;42419;48.760;2.322;2023-03-31T07:49:34;99296.00;;;24.19;36.34
56518;BME280;42419;48.760;2.322;2023-03-31T07:52:00;99240.41;;;23.86;36.24
56518;BME280;42419;48.760;2.322;2023-03-31T07:54:26;99295.19;;;24.19;36.54
56518;BME280;42419;48.760;2.322;2023-03-31T07:56:51;99283.06;;;24.13;36.11
56518;BME280;42419;48.760;2.322;2023-03-31T07:59:17;99297.47;;;24.23;35.95
56518;BME280;42419;48.760;2.322;2023-03-31T08:01:42;99284.16;;;24.22;36.22
56518;BME280;42419;48.760;2.322;2023-03-31T08:04:08;99295.53;;;24.25;36.18
56518;BME280;42419;48.760;2.322;2023-03-31T08:06:34;99274.75;;;24.16;35.97
56518;BME280;42419;48.760;2.322;2023-03-31T08:08:59;99283.91;;;24.25;35.82
56518;BME280;42419;48.760;2.322;2023-03-31T08:11:25;99274.88;;;24.26;36.13
56518;BME280;42419;48.760;2.322;2023-03-31T08:13:51;99279.38;;;24.25;36.39
56518;BME280;42419;48.760;2.322;2023-03-31T08:16:16;99283.78;;;24.26;35.54
56518;BME280;42419;48.760;2.322;2023-03-31T08:18:42;99289.03;;;24.28;36.17
56518;BME280;42419;48.760;2.322;2023-03-31T08:21:07;99288.19;;;24.27;36.17
56518;BME280;42419;48.760;2.322;2023-03-31T08:23:34;99302.63;;;24.26;35.80
56518;BME280;42419;48.760;2.322;2023-03-31T08:26:17;99280.13;;;24.16;35.61
56518;BME280;42419;48.760;2.322;2023-03-31T08:28:43;99286.09;;;24.20;35.40
56518;BME280;42419;48.760;2.322;2023-03-31T08:31:09;99294.41;;;24.28;35.92
56518;BME280;42419;48.760;2.322;2023-03-31T08:33:35;99291.59;;;24.29;35.35
56518;BME280;42419;48.760;2.322;2023-03-31T08:36:05;99286.22;;;24.29;35.70
56518;BME280;42419;48.760;2.322;2023-03-31T08:38:33;99291.59;;;24.29;35.58
56518;BME280;42419;48.760;2.322;2023-03-31T08:41:00;99277.28;;;24.29;35.47
56518;BME280;42419;48.760;2.322;2023-03-31T08:43:30;99287.19;;;24.28;35.78
56518;BME280;42419;48.760;2.322;2023-03-31T08:45:57;99289.03;;;24.28;35.28
56518;BME280;42419;48.760;2.322;2023-03-31T08:48:29;99268.50;;;24.27;35.35
56518;BME280;42419;48.760;2.322;2023-03-31T08:51:02;99285.50;;;24.27;35.44
56518;BME280;42419;48.760;2.322;2023-03-31T08:53:42;99289.19;;;24.26;35.20
56518;BME280;42419;48.760;2.322;2023-03-31T08:56:16;99266.78;;;24.14;35.52
56518;BME280;42419;48.760;2.322;2023-03-31T08:58:45;99280.34;;;24.24;35.44
56518;BME280;42419;48.760;2.322;2023-03-31T09:07:21;99275.34;;;24.20;35.65
56518;BME280;42419;48.760;2.322;2023-03-31T09:09:45;99267.41;;;24.18;35.19
56518;BME280;42419;48.760;2.322;2023-03-31T09:12:22;99268.38;;;24.17;35.59
56518;BME280;42419;48.760;2.322;2023-03-31T09:17:32;99261.28;;;24.16;35.66
56518;BME280;42419;48.760;2.322;2023-03-31T09:20:03;99265.97;;;24.14;35.21
56518;BME280;42419;48.760;2.322;2023-03-31T09:22:40;99280.38;;;24.13;35.44
56518;BME280;42419;48.760;2.322;2023-03-31T09:27:41;99270.59;;;24.12;35.27
56518;BME280;42419;48.760;2.322;2023-03-31T09:30:18;99280.59;;;24.10;35.66
56518;BME280;42419;48.760;2.322;2023-03-31T09:32:47;99260.31;;;24.06;35.82
56518;BME280;42419;48.760;2.322;2023-03-31T09:37:41;99278.91;;;24.09;35.66
56518;BME280;42419;48.760;2.322;2023-03-31T09:40:12;99266.31;;;24.09;35.29
56518;BME280;42419;48.760;2.322;2023-03-31T09:42:39;99267.16;;;24.10;35.49
56518;BME280;42419;48.760;2.322;2023-03-31T09:45:05;99262.03;;;24.07;35.05
56518;BME280;42419;48.760;2.322;2023-03-31T09:47:34;99271.56;;;24.11;35.79
56518;BME280;42419;48.760;2.322;2023-03-31T09:50:06;99261.78;;;24.10;35.28
56518;BME280;42419;48.760;2.322;2023-03-31T09:52:37;99265.31;;;24.10;35.27
56518;BME280;42419;48.760;2.322;2023-03-31T09:55:12;99249.41;;;23.96;35.06
56518;BME280;42419;48.760;2.322;2023-03-31T09:57:39;99228.56;;;24.00;35.22
56518;BME280;42419;48.760;2.322;2023-03-31T10:02:55;99249.34;;;24.09;35.05
56518;BME280;42419;48.760;2.322;2023-03-31T10:10:53;99250.78;;;24.13;34.58
56518;BME280;42419;48.760;2.322;2023-03-31T10:13:25;99240.91;;;24.13;34.94
56518;BME280;42419;48.760;2.322;2023-03-31T10:15:53;99258.00;;;24.12;35.11
56518;BME280;42419;48.760;2.322;2023-03-31T10:18:20;99245.53;;;24.11;34.92
56518;BME280;42419;48.760;2.322;2023-03-31T10:20:57;99260.09;;;24.09;34.56
56518;BME280;42419;48.760;2.322;2023-03-31T10:23:26;99270.94;;;24.07;34.88
56518;BME280;42419;48.760;2.322;2023-03-31T10:25:53;99271.06;;;24.06;34.99
56518;BME280;42419;48.760;2.322;2023-03-31T10:28:19;99258.84;;;23.91;34.40
56518;BME280;42419;48.760;2.322;2023-03-31T10:30:50;99256.41;;;23.99;34.58
56518;BME280;42419;48.760;2.322;2023-03-31T10:33:19;99260.81;;;24.00;34.83
56518;BME280;42419;48.760;2.322;2023-03-31T10:35:48;99259.97;;;23.99;34.83
56518;BME280;42419;48.760;2.322;2023-03-31T10:38:23;99271.56;;;24.00;34.74
56518;BME280;42419;48.760;2.322;2023-03-31T10:40:50;99256.41;;;23.99;34.69
56518;BME280;42419;48.760;2.322;2023-03-31T10:43:24;99245.00;;;23.84;34.42
56518;BME280;42419;48.760;2.322;2023-03-31T10:45:52;99264.22;;;24.02;34.66
56518;BME280;42419;48.760;2.322;2023-03-31T10:50:52;99247.72;;;24.06;34.34
56518;BME280;42419;48.760;2.322;2023-03-31T10:53:18;99262.78;;;24.09;34.40
56518;BME280;42419;48.760;2.322;2023-03-31T10:58:53;99247.34;;;24.11;34.48
56518;BME280;42419;48.760;2.322;2023-03-31T11:01:44;99261.56;;;24.13;34.79
56518;BME280;42419;48.760;2.322;2023-03-31T11:12:20;99266.31;;;24.09;34.60
56518;BME280;42419;48.760;2.322;2023-03-31T11:17:51;99277.31;;;24.06;34.48
56518;BME280;42419;48.760;2.322;2023-03-31T11:20:43;99266.53;;;24.06;34.59
56518;BME280;42419;48.760;2.322;2023-03-31T11:26:01;99234.66;;;24.02;34.48
56518;BME280;42419;48.760;2.322;2023-03-31T11:31:28;99260.19;;;24.07;34.31
56518;BME280;42419;48.760;2.322;2023-03-31T11:34:12;99257.63;;;24.06;34.81
56518;BME280;42419;48.760;2.322;2023-03-31T11:37:08;99240.63;;;24.05;34.17
56518;BME280;42419;48.760;2.322;2023-03-31T11:42:13;99232.56;;;23.94;34.17
56518;BME280;42419;48.760;2.322;2023-03-31T11:44:46;99233.41;;;24.06;34.24
56518;BME280;42419;48.760;2.322;2023-03-31T11:47:24;99217.91;;;23.98;34.20
56518;BME280;42419;48.760;2.322;2023-03-31T11:49:58;99241.47;;;24.06;34.64
56518;BME280;42419;48.760;2.322;2023-03-31T11:52:37;99244.16;;;24.06;34.33
56518;BME280;42419;48.760;2.322;2023-03-31T11:55:11;99238.69;;;24.07;34.18
56518;BME280;42419;48.760;2.322;2023-03-31T11:57:43;99246.75;;;24.07;34.22
56518;BME280;42419;48.760;2.322;2023-03-31T12:00:16;99233.31;;;24.07;34.55
56518;BME280;42419;48.760;2.322;2023-03-31T12:02:51;99227.91;;;23.96;34.85
56518;BME280;42419;48.760;2.322;2023-03-31T12:05:19;99232.56;;;24.05;34.30
56518;BME280;42419;48.760;2.322;2023-03-31T12:10:37;99238.78;;;24.06;34.88
56518;BME280;42419;48.760;2.322;2023-03-31T12:15:43;99241.75;;;24.03;34.69
56518;BME280;42419;48.760;2.322;2023-03-31T12:18:19;99232.81;;;24.02;34.78
56518;BME280;42419;48.760;2.322;2023-03-31T12:20:50;99254.44;;;24.01;34.69
56518;BME280;42419;48.760;2.322;2023-03-31T12:23:19;99248.47;;;23.97;34.32
56518;BME280;42419;48.760;2.322;2023-03-31T12:25:53;99238.31;;;24.01;34.30
56518;BME280;42419;48.760;2.322;2023-03-31T12:28:21;99223.91;;;23.91;34.65
56518;BME280;42419;48.760;2.322;2023-03-31T12:30:47;99236.38;;;24.03;34.03
56518;BME280;42419;48.760;2.322;2023-03-31T12:33:17;99247.13;;;24.03;34.63
56518;BME280;42419;48.760;2.322;2023-03-31T12:38:52;99247.13;;;24.03;34.47
56518;BME280;42419;48.760;2.322;2023-03-31T12:41:59;99259.69;;;24.02;34.32
56518;BME280;42419;48.760;2.322;2023-03-31T12:45:53;99253.47;;;24.02;34.25
56518;BME280;42419;48.760;2.322;2023-03-31T12:51:15;99188.06;;;23.68;33.86
56518;BME280;42419;48.760;2.322;2023-03-31T12:53:58;99250.78;;;24.02;34.09
56518;BME280;42419;48.760;2.322;2023-03-31T12:56:26;99247.22;;;24.01;34.03
56518;BME280;42419;48.760;2.322;2023-03-31T12:58:51;99234.66;;;24.02;34.24
56518;BME280;42419;48.760;2.322;2023-03-31T13:01:23;99231.00;;;24.03;34.26
56518;BME280;42419;48.760;2.322;2023-03-31T13:08:57;99219.47;;;24.01;34.40
56518;BME280;42419;48.760;2.322;2023-03-31T13:16:31;99219.47;;;24.01;33.76
56518;BME280;42419;48.760;2.322;2023-03-31T13:18:57;99214.25;;;23.99;34.39
56518;BME280;42419;48.760;2.322;2023-03-31T13:21:24;99224.16;;;23.99;33.63
56518;BME280;42419;48.760;2.322;2023-03-31T13:23:50;99220.59;;;23.98;33.85
56518;BME280;42419;48.760;2.322;2023-03-31T13:26:45;99226.94;;;23.97;33.81
56518;BME280;42419;48.760;2.322;2023-03-31T13:29:20;99198.84;;;23.90;34.21
56518;BME280;42419;48.760;2.322;2023-03-31T13:34:49;99211.94;;;23.95;33.72
56518;BME280;42419;48.760;2.322;2023-03-31T13:42:51;99195.56;;;23.87;33.88
56518;BME280;42419;48.760;2.322;2023-03-31T13:45:26;99197.75;;;23.93;34.40
56518;BME280;42419;48.760;2.322;2023-03-31T13:48:33;99222.94;;;23.92;33.84
56518;BME280;42419;48.760;2.322;2023-03-31T14:07:45;99191.97;;;23.64;33.99
56518;BME280;42419;48.760;2.322;2023-03-31T14:10:35;99215.28;;;23.74;33.54
56518;BME280;42419;48.760;2.322;2023-03-31T14:13:05;99220.91;;;23.71;33.58
56518;BME280;42419;48.760;2.322;2023-03-31T14:15:31;99221.19;;;23.68;33.58
56518;BME280;42419;48.760;2.322;2023-03-31T14:17:57;99227.41;;;23.69;33.69
56518;BME280;42419;48.760;2.322;2023-03-31T14:23:14;99236.56;;;23.66;33.69
56518;BME280;42419;48.760;2.322;2023-03-31T14:31:09;99225.09;;;23.64;33.45
56518;BME280;42419;48.760;2.322;2023-03-31T14:38:52;99221.66;;;23.62;33.71
56518;BME280;42419;48.760;2.322;2023-03-31T14:41:20;99213.59;;;23.62;33.50
56518;BME280;42419;48.760;2.322;2023-03-31T14:43:55;99224.44;;;23.61;33.26
56518;BME280;42419;48.760;2.322;2023-03-31T14:46:22;99204.78;;;23.49;33.44
56518;BME280;42419;48.760;2.322;2023-03-31T14:48:49;99229.00;;;23.60;33.21
56518;BME280;42419;48.760;2.322;2023-03-31T14:51:17;99221.75;;;23.61;33.58
56518;BME280;42419;48.760;2.322;2023-03-31T14:53:43;99218.25;;;23.60;33.17
56518;BME280;42419;48.760;2.322;2023-03-31T14:56:11;99212.88;;;23.60;33.54
56518;BME280;42419;48.760;2.322;2023-03-31T14:58:42;99223.63;;;23.60;33.07
56518;BME280;42419;48.760;2.322;2023-03-31T15:01:14;99227.50;;;23.56;33.12
56518;BME280;42419;48.760;2.322;2023-03-31T15:03:41;99239.84;;;23.59;33.27
56518;BME280;42419;48.760;2.322;2023-03-31T15:06:08;99208.44;;;23.48;33.27
56518;BME280;42419;48.760;2.322;2023-03-31T15:08:36;99247.03;;;23.58;33.07
56518;BME280;42419;48.760;2.322;2023-03-31T15:11:05;99238.00;;;23.59;33.36
56518;BME280;42419;48.760;2.322;2023-03-31T15:13:46;99262.19;;;23.59;32.93
56518;BME280;42419;48.760;2.322;2023-03-31T15:19:19;99266.59;;;23.60;33.26
56518;BME280;42419;48.760;2.322;2023-03-31T15:24:21;99281.00;;;23.59;33.46
56518;BME280;42419;48.760;2.322;2023-03-31T15:26:59;99293.34;;;23.62;33.24
56518;BME280;42419;48.760;2.322;2023-03-31T15:29:40;99287.00;;;23.63;32.64
56518;BME280;42419;48.760;2.322;2023-03-31T15:32:14;99269.75;;;23.54;32.92
56518;BME280;42419;48.760;2.322;2023-03-31T15:34:41;99302.00;;;23.65;33.10
56518;BME280;42419;48.760;2.322;2023-03-31T15:37:08;99309.25;;;23.65;32.95
56518;BME280;42419;48.760;2.322;2023-03-31T15:39:35;99289.56;;;23.64;32.83
56518;BME280;42419;48.760;2.322;2023-03-31T15:42:04;99298.59;;;23.63;33.29
56518;BME280;42419;48.760;2.322;2023-03-31T15:44:37;99314.47;;;23.66;33.19
56518;BME280;42419;48.760;2.322;2023-03-31T15:47:26;99310.94;;;23.66;32.81
56518;BME280;42419;48.760;2.322;2023-03-31T15:50:11;99314.47;;;23.66;32.62
56518;BME280;42419;48.760;2.322;2023-03-31T15:52:38;99316.19;;;23.67;32.77
56518;BME280;42419;48.760;2.322;2023-03-31T15:55:29;99315.22;;;23.68;32.72
56518;BME280;42419;48.760;2.322;2023-03-31T15:57:58;99311.69;;;23.68;32.68
56518;BME280;42419;48.760;2.322;2023-03-31T16:03:16;99321.56;;;23.67;32.87